sensor_id;sensor_type;location;lat;lon;timestamp;pressure;altitude;pressure_sealevel;temperature;humidity
60417;BME280;46263;44.726;10.396;2023-01-15T00:01:34;100894.44;;;8.68;66.92
60417;BME280;46263;44.726;10.396;2023-01-15T00:04:00;100896.75;;;8.74;67.34
60417;BME280;46263;44.726;10.396;2023-01-15T00:06:30;100886.56;;;8.61;67.21
60417;BME280;46263;44.726;10.396;2023-01-15T00:08:57;100891.38;;;8.60;67.39
60417;BME280;46263;44.726;10.396;2023-01-15T00:11:22;100884.78;;;8.63;67.53
60417;BME280;46263;44.726;10.396;2023-01-15T00:13:48;100871.88;;;8.66;67.55
60417;BME280;46263;44.726;10.396;2023-01-15T00:16:17;100883.44;;;8.48;67.59
60417;BME280;46263;44.726;10.396;2023-01-15T00:18:48;100875.41;;;8.61;67.27
60417;BME280;46263;44.726;10.396;2023-01-15T00:21:14;100878.66;;;8.54;67.59
60417;BME280;46263;44.726;10.396;2023-01-15T00:23:40;100878.38;;;8.52;67.54
60417;BME280;46263;44.726;10.396;2023-01-15T00:26:27;100874.38;;;8.58;67.03
60417;BME280;46263;44.726;10.396;2023-01-15T00:29:11;100866.19;;;8.44;68.07
60417;BME280;46263;44.726;10.396;2023-01-15T00:31:37;100860.63;;;8.44;68.16
60417;BME280;46263;44.726;10.396;2023-01-15T00:34:02;100858.00;;;8.35;68.46
60417;BME280;46263;44.726;10.396;2023-01-15T00:36:28;100850.16;;;8.33;68.65
60417;BME280;46263;44.726;10.396;2023-01-15T00:38:53;100861.88;;;8.43;68.19
60417;BME280;46263;44.726;10.396;2023-01-15T00:41:19;100855.59;;;8.48;68.44
60417;BME280;46263;44.726;10.396;2023-01-15T00:43:45;100852.59;;;8.57;68.06
60417;BME280;46263;44.726;10.396;2023-01-15T00:46:10;100846.03;;;8.60;68.15
60417;BME280;46263;44.726;10.396;2023-01-15T00:48:36;100844.50;;;8.59;68.34
60417;BME280;46263;44.726;10.396;2023-01-15T00:51:02;100844.78;;;8.61;68.18
60417;BME280;46263;44.726;10.396;2023-01-15T00:53:28;100840.75;;;8.67;67.67
60417;BME280;46263;44.726;10.396;2023-01-15T00:55:53;100841.50;;;8.68;67.63
60417;BME280;46263;44.726;10.396;2023-01-15T00:58:19;100843.31;;;8.71;67.57
60417;BME280;46263;44.726;10.396;2023-01-15T01:00:44;100836.19;;;8.64;67.65
60417;BME280;46263;44.726;10.396;2023-01-15T01:03:10;100838.13;;;8.53;68.59
60417;BME280;46263;44.726;10.396;2023-01-15T01:05:36;100836.69;;;8.63;68.46
60417;BME280;46263;44.726;10.396;2023-01-15T01:08:01;100839.88;;;8.45;68.68
60417;BME280;46263;44.726;10.396;2023-01-15T01:10:27;100841.19;;;8.55;68.33
60417;BME280;46263;44.726;10.396;2023-01-15T01:12:52;100846.03;;;8.60;68.49
60417;BME280;46263;44.726;10.396;2023-01-15T01:15:19;100839.94;;;8.61;68.47
60417;BME280;46263;44.726;10.396;2023-01-15T01:17:45;100836.94;;;8.65;68.33
60417;BME280;46263;44.726;10.396;2023-01-15T01:20:15;100844.88;;;8.41;68.88
60417;BME280;46263;44.726;10.396;2023-01-15T01:22:41;100847.66;;;8.41;69.10
60417;BME280;46263;44.726;10.396;2023-01-15T01:25:07;100845.16;;;8.43;68.88
60417;BME280;46263;44.726;10.396;2023-01-15T01:27:33;100833.56;;;8.50;68.86
60417;BME280;46263;44.726;10.396;2023-01-15T01:29:59;100832.34;;;8.56;68.55
60417;BME280;46263;44.726;10.396;2023-01-15T01:32:24;100828.81;;;8.61;68.34
60417;BME280;46263;44.726;10.396;2023-01-15T01:34:49;100825.78;;;8.65;68.17
60417;BME280;46263;44.726;10.396;2023-01-15T01:37:15;100828.56;;;8.65;68.02
60417;BME280;46263;44.726;10.396;2023-01-15T01:39:40;100825.78;;;8.65;67.98
60417;BME280;46263;44.726;10.396;2023-01-15T01:42:14;100830.09;;;8.66;67.94
60417;BME280;46263;44.726;10.396;2023-01-15T01:47:24;100841.44;;;8.57;68.19
60417;BME280;46263;44.726;10.396;2023-01-15T01:49:53;100826.72;;;8.51;68.18
60417;BME280;46263;44.726;10.396;2023-01-15T01:52:31;100823.22;;;8.56;67.99
60417;BME280;46263;44.726;10.396;2023-01-15T01:54:57;100828.81;;;8.56;68.41
60417;BME280;46263;44.726;10.396;2023-01-15T01:57:24;100821.47;;;8.58;68.15
60417;BME280;46263;44.726;10.396;2023-01-15T01:59:50;100819.97;;;8.63;67.85
60417;BME280;46263;44.726;10.396;2023-01-15T02:02:19;100822.22;;;8.59;67.98
60417;BME280;46263;44.726;10.396;2023-01-15T02:04:46;100821.22;;;8.62;67.79
60417;BME280;46263;44.726;10.396;2023-01-15T02:07:12;100818.69;;;8.58;68.01
60417;BME280;46263;44.726;10.396;2023-01-15T02:09:37;100819.66;;;8.55;68.12
60417;BME280;46263;44.726;10.396;2023-01-15T02:12:35;100808.00;;;8.57;68.50
60417;BME280;46263;44.726;10.396;2023-01-15T02:15:15;100806.00;;;8.57;68.24
60417;BME280;46263;44.726;10.396;2023-01-15T02:17:55;100800.72;;;8.59;68.16
60417;BME280;46263;44.726;10.396;2023-01-15T02:20:50;100808.84;;;8.63;68.48
60417;BME280;46263;44.726;10.396;2023-01-15T02:23:37;100807.31;;;8.62;68.38
60417;BME280;46263;44.726;10.396;2023-01-15T02:28:53;100789.34;;;8.63;68.25
60417;BME280;46263;44.726;10.396;2023-01-15T02:36:23;100768.03;;;8.60;67.94
60417;BME280;46263;44.726;10.396;2023-01-15T02:38:53;100763.44;;;8.57;68.67
60417;BME280;46263;44.726;10.396;2023-01-15T02:41:25;100756.13;;;8.54;69.28
60417;BME280;46263;44.726;10.396;2023-01-15T02:43:55;100748.25;;;8.58;68.90
60417;BME280;46263;44.726;10.396;2023-01-15T02:46:26;100754.63;;;8.58;68.32
60417;BME280;46263;44.726;10.396;2023-01-15T02:48:54;100751.31;;;8.60;68.66
60417;BME280;46263;44.726;10.396;2023-01-15T02:51:25;100756.16;;;8.59;68.58
60417;BME280;46263;44.726;10.396;2023-01-15T02:53:54;100743.22;;;8.62;68.88
60417;BME280;46263;44.726;10.396;2023-01-15T02:56:30;100740.72;;;8.64;68.92
60417;BME280;46263;44.726;10.396;2023-01-15T02:59:02;100736.66;;;8.65;68.64
60417;BME280;46263;44.726;10.396;2023-01-15T03:01:50;100736.09;;;8.55;69.54
60417;BME280;46263;44.726;10.396;2023-01-15T03:04:55;100718.09;;;8.51;69.76
60417;BME280;46263;44.726;10.396;2023-01-15T03:07:34;100718.13;;;8.56;69.59
60417;BME280;46263;44.726;10.396;2023-01-15T03:10:02;100713.59;;;8.64;69.23
60417;BME280;46263;44.726;10.396;2023-01-15T03:15:24;100717.16;;;8.70;69.35
60417;BME280;46263;44.726;10.396;2023-01-15T03:18:11;100717.94;;;8.71;69.09
60417;BME280;46263;44.726;10.396;2023-01-15T03:20:43;100719.72;;;8.73;69.12
60417;BME280;46263;44.726;10.396;2023-01-15T03:23:15;100715.63;;;8.69;69.01
60417;BME280;46263;44.726;10.396;2023-01-15T03:25:47;100714.91;;;8.69;69.12
60417;BME280;46263;44.726;10.396;2023-01-15T03:28:14;100701.22;;;8.71;69.30
60417;BME280;46263;44.726;10.396;2023-01-15T03:30:42;100715.66;;;8.74;69.00
60417;BME280;46263;44.726;10.396;2023-01-15T03:33:08;100714.13;;;8.73;69.08
60417;BME280;46263;44.726;10.396;2023-01-15T03:35:56;100715.94;;;8.76;69.03
60417;BME280;46263;44.726;10.396;2023-01-15T03:38:29;100707.84;;;8.78;69.09
60417;BME280;46263;44.726;10.396;2023-01-15T03:43:33;100707.84;;;8.78;68.98
60417;BME280;46263;44.726;10.396;2023-01-15T03:46:13;100700.50;;;8.86;69.12
60417;BME280;46263;44.726;10.396;2023-01-15T03:48:54;100699.22;;;8.76;69.07
60417;BME280;46263;44.726;10.396;2023-01-15T03:51:25;100692.66;;;8.79;68.75
60417;BME280;46263;44.726;10.396;2023-01-15T03:53:57;100687.81;;;8.74;69.12
60417;BME280;46263;44.726;10.396;2023-01-15T03:56:38;100688.34;;;8.78;69.06
60417;BME280;46263;44.726;10.396;2023-01-15T03:59:33;100673.38;;;8.81;69.12
60417;BME280;46263;44.726;10.396;2023-01-15T04:02:01;100672.38;;;8.84;68.95
60417;BME280;46263;44.726;10.396;2023-01-15T04:04:28;100681.25;;;8.94;69.09
60417;BME280;46263;44.726;10.396;2023-01-15T04:06:55;100673.69;;;8.94;68.87
60417;BME280;46263;44.726;10.396;2023-01-15T04:09:22;100661.03;;;8.99;68.76
60417;BME280;46263;44.726;10.396;2023-01-15T04:11:48;100660.25;;;8.98;69.31
60417;BME280;46263;44.726;10.396;2023-01-15T04:14:13;100650.63;;;8.99;69.24
60417;BME280;46263;44.726;10.396;2023-01-15T04:16:39;100644.53;;;8.95;69.17
60417;BME280;46263;44.726;10.396;2023-01-15T04:19:05;100645.81;;;9.00;68.85
60417;BME280;46263;44.726;10.396;2023-01-15T04:21:30;100651.13;;;9.03;68.65
60417;BME280;46263;44.726;10.396;2023-01-15T04:23:56;100643.00;;;9.05;68.78
60417;BME280;46263;44.726;10.396;2023-01-15T04:26:22;100643.00;;;9.05;68.40
60417;BME280;46263;44.726;10.396;2023-01-15T04:28:47;100639.75;;;9.07;68.56
60417;BME280;46263;44.726;10.396;2023-01-15T04:31:13;100640.75;;;9.04;68.21
60417;BME280;46263;44.726;10.396;2023-01-15T04:33:39;100638.97;;;9.06;68.31
60417;BME280;46263;44.726;10.396;2023-01-15T04:36:05;100642.00;;;9.08;68.42
60417;BME280;46263;44.726;10.396;2023-01-15T04:38:30;100641.53;;;9.04;68.22
60417;BME280;46263;44.726;10.396;2023-01-15T04:41:03;100636.41;;;8.86;68.46
60417;BME280;46263;44.726;10.396;2023-01-15T04:43:47;100626.00;;;8.81;68.77
60417;BME280;46263;44.726;10.396;2023-01-15T04:46:40;100637.41;;;8.83;69.01
60417;BME280;46263;44.726;10.396;2023-01-15T04:49:08;100638.19;;;8.84;69.00
60417;BME280;46263;44.726;10.396;2023-01-15T04:51:34;100631.09;;;8.83;68.73
60417;BME280;46263;44.726;10.396;2023-01-15T04:54:03;100641.47;;;8.82;68.74
60417;BME280;46263;44.726;10.396;2023-01-15T04:56:30;100635.16;;;8.87;68.83
60417;BME280;46263;44.726;10.396;2023-01-15T04:58:59;100629.56;;;8.93;68.50
60417;BME280;46263;44.726;10.396;2023-01-15T05:01:26;100624.00;;;8.93;69.06
60417;BME280;46263;44.726;10.396;2023-01-15T05:03:51;100619.69;;;8.86;69.15
60417;BME280;46263;44.726;10.396;2023-01-15T05:06:17;100616.16;;;8.91;69.65
60417;BME280;46263;44.726;10.396;2023-01-15T05:08:43;100609.31;;;8.98;69.18
60417;BME280;46263;44.726;10.396;2023-01-15T05:11:09;100613.66;;;9.04;69.13
60417;BME280;46263;44.726;10.396;2023-01-15T05:13:35;100611.09;;;9.06;69.03
60417;BME280;46263;44.726;10.396;2023-01-15T05:16:27;100605.50;;;9.06;69.00
60417;BME280;46263;44.726;10.396;2023-01-15T05:18:57;100602.50;;;9.04;69.46
60417;BME280;46263;44.726;10.396;2023-01-15T05:21:25;100605.78;;;9.08;69.25
60417;BME280;46263;44.726;10.396;2023-01-15T05:23:53;100606.03;;;9.10;68.95
60417;BME280;46263;44.726;10.396;2023-01-15T05:26:20;100601.22;;;9.00;69.32
60417;BME280;46263;44.726;10.396;2023-01-15T05:28:46;100585.00;;;9.09;69.22
60417;BME280;46263;44.726;10.396;2023-01-15T05:31:14;100591.06;;;9.13;68.89
60417;BME280;46263;44.726;10.396;2023-01-15T05:33:40;100597.16;;;9.17;69.10
60417;BME280;46263;44.726;10.396;2023-01-15T05:36:11;100588.03;;;9.22;69.15
60417;BME280;46263;44.726;10.396;2023-01-15T05:38:37;100584.97;;;9.26;69.31
60417;BME280;46263;44.726;10.396;2023-01-15T05:41:05;100593.09;;;9.18;69.01
60417;BME280;46263;44.726;10.396;2023-01-15T05:43:49;100604.00;;;9.05;69.64
60417;BME280;46263;44.726;10.396;2023-01-15T05:46:14;100596.66;;;9.08;70.01
60417;BME280;46263;44.726;10.396;2023-01-15T05:48:40;100599.44;;;9.02;69.78
60417;BME280;46263;44.726;10.396;2023-01-15T05:51:05;100597.66;;;9.05;69.75
60417;BME280;46263;44.726;10.396;2023-01-15T05:53:31;100579.91;;;9.13;69.83
60417;BME280;46263;44.726;10.396;2023-01-15T05:56:05;100569.28;;;9.23;69.89
60417;BME280;46263;44.726;10.396;2023-01-15T05:58:32;100586.00;;;9.28;69.70
60417;BME280;46263;44.726;10.396;2023-01-15T06:00:57;100579.91;;;9.30;69.24
60417;BME280;46263;44.726;10.396;2023-01-15T06:03:25;100584.22;;;9.36;69.13
60417;BME280;46263;44.726;10.396;2023-01-15T06:05:51;100588.50;;;9.37;69.28
60417;BME280;46263;44.726;10.396;2023-01-15T06:08:17;100591.56;;;9.39;68.94
60417;BME280;46263;44.726;10.396;2023-01-15T06:10:43;100585.72;;;9.37;69.36
60417;BME280;46263;44.726;10.396;2023-01-15T06:13:09;100577.88;;;9.36;69.41
60417;BME280;46263;44.726;10.396;2023-01-15T06:15:35;100560.88;;;9.39;69.94
60417;BME280;46263;44.726;10.396;2023-01-15T06:18:00;100558.59;;;9.43;69.66
60417;BME280;46263;44.726;10.396;2023-01-15T06:20:26;100541.59;;;9.41;70.00
60417;BME280;46263;44.726;10.396;2023-01-15T06:22:51;100550.47;;;9.45;69.91
60417;BME280;46263;44.726;10.396;2023-01-15T06:25:16;100538.53;;;9.50;69.53
60417;BME280;46263;44.726;10.396;2023-01-15T06:27:42;100526.88;;;9.46;69.42
60417;BME280;46263;44.726;10.396;2023-01-15T06:30:10;100531.94;;;9.53;69.16
60417;BME280;46263;44.726;10.396;2023-01-15T06:32:36;100529.91;;;9.53;68.82
60417;BME280;46263;44.726;10.396;2023-01-15T06:35:01;100538.53;;;9.50;68.83
60417;BME280;46263;44.726;10.396;2023-01-15T06:37:27;100534.22;;;9.49;68.83
60417;BME280;46263;44.726;10.396;2023-01-15T06:39:52;100529.91;;;9.48;68.97
60417;BME280;46263;44.726;10.396;2023-01-15T06:42:18;100529.13;;;9.53;68.97
60417;BME280;46263;44.726;10.396;2023-01-15T06:45:02;100541.06;;;9.53;68.81
60417;BME280;46263;44.726;10.396;2023-01-15T06:47:46;100545.38;;;9.49;68.86
60417;BME280;46263;44.726;10.396;2023-01-15T06:50:12;100549.97;;;9.47;69.07
60417;BME280;46263;44.726;10.396;2023-01-15T06:52:37;100549.19;;;9.46;69.03
60417;BME280;46263;44.726;10.396;2023-01-15T06:55:03;100544.13;;;9.39;69.33
60417;BME280;46263;44.726;10.396;2023-01-15T06:57:29;100542.88;;;9.40;69.61
60417;BME280;46263;44.726;10.396;2023-01-15T06:59:54;100560.88;;;9.39;69.56
60417;BME280;46263;44.726;10.396;2023-01-15T07:02:20;100538.81;;;9.41;69.54
60417;BME280;46263;44.726;10.396;2023-01-15T07:04:46;100537.56;;;9.42;69.71
60417;BME280;46263;44.726;10.396;2023-01-15T07:07:16;100543.88;;;9.43;69.57
60417;BME280;46263;44.726;10.396;2023-01-15T07:09:41;100545.16;;;9.42;69.64
60417;BME280;46263;44.726;10.396;2023-01-15T07:12:07;100540.59;;;9.44;69.36
60417;BME280;46263;44.726;10.396;2023-01-15T07:14:32;100522.81;;;9.47;69.57
60417;BME280;46263;44.726;10.396;2023-01-15T07:16:58;100517.50;;;9.49;69.66
60417;BME280;46263;44.726;10.396;2023-01-15T07:19:24;100516.22;;;9.50;69.62
60417;BME280;46263;44.726;10.396;2023-01-15T07:21:49;100517.75;;;9.51;69.54
60417;BME280;46263;44.726;10.396;2023-01-15T07:24:16;100526.13;;;9.51;69.50
60417;BME280;46263;44.726;10.396;2023-01-15T07:26:42;100523.81;;;9.55;69.32
60417;BME280;46263;44.726;10.396;2023-01-15T07:29:08;100513.44;;;9.55;69.38
60417;BME280;46263;44.726;10.396;2023-01-15T07:31:33;100524.59;;;9.55;69.45
60417;BME280;46263;44.726;10.396;2023-01-15T07:33:59;100518.75;;;9.59;69.45
60417;BME280;46263;44.726;10.396;2023-01-15T07:36:25;100500.47;;;9.58;68.99
60417;BME280;46263;44.726;10.396;2023-01-15T07:38:50;100507.59;;;9.59;68.96
60417;BME280;46263;44.726;10.396;2023-01-15T07:41:16;100496.69;;;9.61;69.08
60417;BME280;46263;44.726;10.396;2023-01-15T07:44:00;100489.31;;;9.58;69.08
60417;BME280;46263;44.726;10.396;2023-01-15T07:46:44;100498.44;;;9.58;69.86
60417;BME280;46263;44.726;10.396;2023-01-15T07:49:28;100496.16;;;9.57;69.68
60417;BME280;46263;44.726;10.396;2023-01-15T07:52:21;100491.84;;;9.61;69.50
60417;BME280;46263;44.726;10.396;2023-01-15T07:54:48;100478.88;;;9.64;69.79
60417;BME280;46263;44.726;10.396;2023-01-15T07:57:18;100484.97;;;9.68;69.21
60417;BME280;46263;44.726;10.396;2023-01-15T07:59:44;100500.72;;;9.60;69.53
60417;BME280;46263;44.726;10.396;2023-01-15T08:02:09;100500.97;;;9.62;69.63
60417;BME280;46263;44.726;10.396;2023-01-15T08:04:35;100503.25;;;9.63;69.46
60417;BME280;46263;44.726;10.396;2023-01-15T08:07:02;100502.22;;;9.66;69.05
60417;BME280;46263;44.726;10.396;2023-01-15T08:09:28;100507.53;;;9.70;69.37
60417;BME280;46263;44.726;10.396;2023-01-15T08:11:54;100512.84;;;9.73;69.40
60417;BME280;46263;44.726;10.396;2023-01-15T08:14:38;100512.09;;;9.67;69.76
60417;BME280;46263;44.726;10.396;2023-01-15T08:17:22;100506.28;;;9.65;69.95
60417;BME280;46263;44.726;10.396;2023-01-15T08:19:48;100526.56;;;9.71;69.87
60417;BME280;46263;44.726;10.396;2023-01-15T08:22:13;100518.19;;;9.71;69.92
60417;BME280;46263;44.726;10.396;2023-01-15T08:24:39;100502.69;;;9.76;69.82
60417;BME280;46263;44.726;10.396;2023-01-15T08:27:05;100520.97;;;9.77;70.37
60417;BME280;46263;44.726;10.396;2023-01-15T08:29:30;100508.56;;;9.72;70.47
60417;BME280;46263;44.726;10.396;2023-01-15T08:31:56;100488.75;;;9.70;70.37
60417;BME280;46263;44.726;10.396;2023-01-15T08:34:21;100501.44;;;9.77;70.24
60417;BME280;46263;44.726;10.396;2023-01-15T08:36:47;100495.34;;;9.73;70.42
60417;BME280;46263;44.726;10.396;2023-01-15T08:39:14;100496.59;;;9.77;70.09
60417;BME280;46263;44.726;10.396;2023-01-15T08:41:39;100494.06;;;9.79;70.12
60417;BME280;46263;44.726;10.396;2023-01-15T08:44:05;100485.91;;;9.81;70.18
60417;BME280;46263;44.726;10.396;2023-01-15T08:46:31;100492.25;;;9.82;70.02
60417;BME280;46263;44.726;10.396;2023-01-15T08:48:56;100500.66;;;9.76;69.82
60417;BME280;46263;44.726;10.396;2023-01-15T08:51:21;100490.00;;;9.75;70.57
60417;BME280;46263;44.726;10.396;2023-01-15T08:53:47;100491.53;;;9.76;70.32
60417;BME280;46263;44.726;10.396;2023-01-15T08:56:18;100477.53;;;9.81;70.55
60417;BME280;46263;44.726;10.396;2023-01-15T08:58:44;100477.50;;;9.87;69.98
60417;BME280;46263;44.726;10.396;2023-01-15T09:01:10;100450.84;;;9.91;69.81
60417;BME280;46263;44.726;10.396;2023-01-15T09:03:43;100434.09;;;9.91;70.21
60417;BME280;46263;44.726;10.396;2023-01-15T09:06:09;100435.09;;;9.99;70.43
60417;BME280;46263;44.726;10.396;2023-01-15T09:08:38;100436.84;;;10.02;70.01
60417;BME280;46263;44.726;10.396;2023-01-15T09:11:05;100434.03;;;10.08;70.12
60417;BME280;46263;44.726;10.396;2023-01-15T09:13:31;100438.81;;;10.13;70.32
60417;BME280;46263;44.726;10.396;2023-01-15T09:16:03;100434.75;;;10.14;70.25
60417;BME280;46263;44.726;10.396;2023-01-15T09:18:29;100438.56;;;10.11;70.16
60417;BME280;46263;44.726;10.396;2023-01-15T09:20:55;100436.53;;;10.11;70.25
60417;BME280;46263;44.726;10.396;2023-01-15T09:23:21;100436.00;;;10.18;69.96
60417;BME280;46263;44.726;10.396;2023-01-15T09:25:56;100436.00;;;10.18;70.18
60417;BME280;46263;44.726;10.396;2023-01-15T09:28:21;100441.28;;;10.22;69.98
60417;BME280;46263;44.726;10.396;2023-01-15T09:30:47;100448.16;;;10.21;69.47
60417;BME280;46263;44.726;10.396;2023-01-15T09:33:12;100440.84;;;10.12;68.23
60417;BME280;46263;44.726;10.396;2023-01-15T09:35:39;100438.53;;;10.16;67.71
60417;BME280;46263;44.726;10.396;2023-01-15T09:38:04;100437.00;;;10.15;67.82
60417;BME280;46263;44.726;10.396;2023-01-15T09:46:14;100406.81;;;10.14;68.41
60417;BME280;46263;44.726;10.396;2023-01-15T09:49:03;100415.16;;;10.19;68.46
60417;BME280;46263;44.726;10.396;2023-01-15T09:51:47;100403.22;;;10.19;68.92
60417;BME280;46263;44.726;10.396;2023-01-15T09:54:22;100418.38;;;10.29;68.67
60417;BME280;46263;44.726;10.396;2023-01-15T09:56:55;100398.38;;;10.25;68.24
60417;BME280;46263;44.726;10.396;2023-01-15T09:59:30;100406.75;;;10.25;68.06
60417;BME280;46263;44.726;10.396;2023-01-15T10:01:57;100408.19;;;10.31;67.43
60417;BME280;46263;44.726;10.396;2023-01-15T10:04:36;100388.38;;;10.34;67.42
60417;BME280;46263;44.726;10.396;2023-01-15T10:07:15;100396.75;;;10.34;67.65
60417;BME280;46263;44.726;10.396;2023-01-15T10:09:43;100390.38;;;10.39;67.21
60417;BME280;46263;44.726;10.396;2023-01-15T10:12:20;100379.56;;;10.54;67.32
60417;BME280;46263;44.726;10.396;2023-01-15T10:17:40;100373.88;;;10.65;66.73
60417;BME280;46263;44.726;10.396;2023-01-15T10:26:02;100390.50;;;10.52;67.95
60417;BME280;46263;44.726;10.396;2023-01-15T10:31:18;100378.13;;;10.42;68.54
60417;BME280;46263;44.726;10.396;2023-01-15T10:36:36;100376.66;;;10.41;68.73
60417;BME280;46263;44.726;10.396;2023-01-15T10:45:19;100360.69;;;10.60;68.62
60417;BME280;46263;44.726;10.396;2023-01-15T10:47:28;100344.47;;;10.59;68.74
60417;BME280;46263;44.726;10.396;2023-01-15T10:49:56;100336.47;;;10.68;68.79
60417;BME280;46263;44.726;10.396;2023-01-15T10:52:30;100337.31;;;10.63;68.59
60417;BME280;46263;44.726;10.396;2023-01-15T10:55:05;100332.41;;;10.69;68.04
60417;BME280;46263;44.726;10.396;2023-01-15T10:57:46;100329.91;;;10.66;67.38
60417;BME280;46263;44.726;10.396;2023-01-15T11:00:15;100316.00;;;10.60;67.34
60417;BME280;46263;44.726;10.396;2023-01-15T11:02:44;100294.19;;;10.77;66.68
60417;BME280;46263;44.726;10.396;2023-01-15T11:05:16;100306.59;;;10.82;66.24
60417;BME280;46263;44.726;10.396;2023-01-15T11:07:47;100309.47;;;10.52;66.60
60417;BME280;46263;44.726;10.396;2023-01-15T11:10:17;100327.16;;;10.60;66.29
60417;BME280;46263;44.726;10.396;2023-01-15T11:12:55;100327.50;;;10.51;66.40
60417;BME280;46263;44.726;10.396;2023-01-15T11:15:44;100322.34;;;10.61;66.00
60417;BME280;46263;44.726;10.396;2023-01-15T11:18:38;100316.31;;;10.75;65.62
60417;BME280;46263;44.726;10.396;2023-01-15T11:21:23;100313.81;;;10.72;64.86
60417;BME280;46263;44.726;10.396;2023-01-15T11:23:50;100300.38;;;10.70;64.02
60417;BME280;46263;44.726;10.396;2023-01-15T11:26:34;100293.63;;;10.60;64.07
60417;BME280;46263;44.726;10.396;2023-01-15T11:29:13;100294.75;;;10.52;64.32
60417;BME280;46263;44.726;10.396;2023-01-15T11:31:40;100281.81;;;10.49;64.47
60417;BME280;46263;44.726;10.396;2023-01-15T11:34:18;100284.81;;;10.56;64.42
60417;BME280;46263;44.726;10.396;2023-01-15T11:36:45;100281.94;;;10.62;64.41
60417;BME280;46263;44.726;10.396;2023-01-15T11:39:22;100272.84;;;10.56;64.75
60417;BME280;46263;44.726;10.396;2023-01-15T11:41:57;100263.38;;;10.64;64.68
60417;BME280;46263;44.726;10.396;2023-01-15T11:44:49;100253.13;;;10.72;64.59
60417;BME280;46263;44.726;10.396;2023-01-15T11:47:33;100238.84;;;10.76;64.38
60417;BME280;46263;44.726;10.396;2023-01-15T11:50:17;100229.06;;;10.64;63.86
60417;BME280;46263;44.726;10.396;2023-01-15T11:53:02;100242.44;;;10.71;63.30
60417;BME280;46263;44.726;10.396;2023-01-15T11:55:28;100236.56;;;10.74;63.54
60417;BME280;46263;44.726;10.396;2023-01-15T11:57:54;100223.66;;;10.71;63.26
60417;BME280;46263;44.726;10.396;2023-01-15T12:02:47;100217.69;;;10.80;63.02
60417;BME280;46263;44.726;10.396;2023-01-15T12:05:16;100211.88;;;10.78;63.02
60417;BME280;46263;44.726;10.396;2023-01-15T12:07:43;100207.56;;;10.77;63.10
60417;BME280;46263;44.726;10.396;2023-01-15T12:13:03;100195.41;;;10.75;62.85
60417;BME280;46263;44.726;10.396;2023-01-15T12:15:47;100185.66;;;10.81;62.85
60417;BME280;46263;44.726;10.396;2023-01-15T12:24:43;100190.03;;;10.77;63.03
60417;BME280;46263;44.726;10.396;2023-01-15T12:27:41;100177.28;;;10.81;63.37
60417;BME280;46263;44.726;10.396;2023-01-15T12:32:42;100180.66;;;10.74;63.83
60417;BME280;46263;44.726;10.396;2023-01-15T12:37:45;100179.47;;;10.70;64.23
60417;BME280;46263;44.726;10.396;2023-01-15T12:42:38;100178.47;;;10.67;64.22
60417;BME280;46263;44.726;10.396;2023-01-15T12:45:27;100176.50;;;10.62;64.69
60417;BME280;46263;44.726;10.396;2023-01-15T12:48:11;100160.28;;;10.61;64.90
60417;BME280;46263;44.726;10.396;2023-01-15T12:50:44;100148.25;;;10.66;64.80
60417;BME280;46263;44.726;10.396;2023-01-15T12:53:16;100157.69;;;10.63;65.19
60417;BME280;46263;44.726;10.396;2023-01-15T12:56:13;100152.94;;;10.58;64.73
60417;BME280;46263;44.726;10.396;2023-01-15T12:58:49;100146.06;;;10.59;65.27
60417;BME280;46263;44.726;10.396;2023-01-15T13:01:30;100138.13;;;10.44;65.37
60417;BME280;46263;44.726;10.396;2023-01-15T13:06:39;100135.94;;;10.56;65.54
60417;BME280;46263;44.726;10.396;2023-01-15T13:09:29;100131.56;;;10.60;65.67
60417;BME280;46263;44.726;10.396;2023-01-15T13:11:58;100118.88;;;10.59;65.39
60417;BME280;46263;44.726;10.396;2023-01-15T13:14:24;100114.78;;;10.60;65.72
60417;BME280;46263;44.726;10.396;2023-01-15T13:19:42;100098.50;;;10.64;65.48
60417;BME280;46263;44.726;10.396;2023-01-15T13:22:18;100096.81;;;10.74;65.03
60417;BME280;46263;44.726;10.396;2023-01-15T13:30:30;100085.78;;;10.82;64.56
60417;BME280;46263;44.726;10.396;2023-01-15T13:33:07;100077.25;;;10.74;64.46
60417;BME280;46263;44.726;10.396;2023-01-15T13:35:47;100062.22;;;10.77;64.42
60417;BME280;46263;44.726;10.396;2023-01-15T13:38:20;100068.13;;;10.74;65.27
60417;BME280;46263;44.726;10.396;2023-01-15T13:40:49;100075.75;;;10.73;64.84
60417;BME280;46263;44.726;10.396;2023-01-15T13:43:33;100069.94;;;10.71;64.94
60417;BME280;46263;44.726;10.396;2023-01-15T13:46:01;100070.16;;;10.73;64.94
60417;BME280;46263;44.726;10.396;2023-01-15T13:48:35;100049.75;;;10.78;64.95
60417;BME280;46263;44.726;10.396;2023-01-15T13:51:06;100061.16;;;10.80;65.27
60417;BME280;46263;44.726;10.396;2023-01-15T13:53:46;100054.47;;;10.83;65.13
60417;BME280;46263;44.726;10.396;2023-01-15T13:56:23;100046.78;;;10.89;65.61
60417;BME280;46263;44.726;10.396;2023-01-15T13:59:03;100034.97;;;10.96;64.93
60417;BME280;46263;44.726;10.396;2023-01-15T14:09:26;100032.69;;;10.95;65.18
60417;BME280;46263;44.726;10.396;2023-01-15T14:22:58;100041.00;;;11.00;65.20
60417;BME280;46263;44.726;10.396;2023-01-15T14:32:13;100044.03;;;11.02;64.76
60417;BME280;46263;44.726;10.396;2023-01-15T14:34:28;100036.03;;;10.93;65.03
60417;BME280;46263;44.726;10.396;2023-01-15T14:37:04;100040.34;;;10.94;64.56
60417;BME280;46263;44.726;10.396;2023-01-15T14:44:58;100040.56;;;10.96;65.24
60417;BME280;46263;44.726;10.396;2023-01-15T14:47:28;100032.28;;;10.91;65.29
60417;BME280;46263;44.726;10.396;2023-01-15T14:50:01;100037.84;;;10.91;65.62